sensor_id;sensor_type;location;lat;lon;timestamp;P1;durP1;ratioP1;P2;durP2;ratioP2
6537;SDS011;3302;52.508;13.454;2022-12-07T00:01:28;9.43;;;5.57;;
6537;SDS011;3302;52.508;13.454;2022-12-07T00:03:57;9.53;;;6.17;;
6537;SDS011;3302;52.508;13.454;2022-12-07T00:06:29;9.10;;;6.10;;
6537;SDS011;3302;52.508;13.454;2022-12-07T00:08:56;10.63;;;7.00;;
6537;SDS011;3302;52.508;13.454;2022-12-07T00:11:23;7.97;;;5.73;;
6537;SDS011;3302;52.508;13.454;2022-12-07T00:13:52;9.47;;;6.07;;
6537;SDS011;3302;52.508;13.454;2022-12-07T00:16:20;12.20;;;6.10;;
6537;SDS011;3302;52.508;13.454;2022-12-07T00:18:48;8.37;;;6.10;;
6537;SDS011;3302;52.508;13.454;2022-12-07T00:21:18;8.70;;;6.43;;
6537;SDS011;3302;52.508;13.454;2022-12-07T00:23:46;8.93;;;6.63;;
6537;SDS011;3302;52.508;13.454;2022-12-07T00:26:16;9.40;;;6.10;;
6537;SDS011;3302;52.508;13.454;2022-12-07T00:28:47;7.77;;;5.53;;
6537;SDS011;3302;52.508;13.454;2022-12-07T00:31:14;7.87;;;5.87;;
6537;SDS011;3302;52.508;13.454;2022-12-07T00:33:42;7.67;;;5.50;;
6537;SDS011;3302;52.508;13.454;2022-12-07T00:36:10;8.37;;;5.43;;
6537;SDS011;3302;52.508;13.454;2022-12-07T00:38:38;6.90;;;5.77;;
6537;SDS011;3302;52.508;13.454;2022-12-07T00:41:05;7.23;;;6.00;;
6537;SDS011;3302;52.508;13.454;2022-12-07T00:43:34;7.43;;;5.83;;
6537;SDS011;3302;52.508;13.454;2022-12-07T00:46:00;8.50;;;6.40;;
6537;SDS011;3302;52.508;13.454;2022-12-07T00:48:26;7.87;;;6.40;;
6537;SDS011;3302;52.508;13.454;2022-12-07T00:50:52;6.70;;;5.03;;
6537;SDS011;3302;52.508;13.454;2022-12-07T00:53:18;7.47;;;5.77;;
6537;SDS011;3302;52.508;13.454;2022-12-07T00:55:44;7.77;;;5.93;;
6537;SDS011;3302;52.508;13.454;2022-12-07T00:58:10;8.80;;;6.63;;
6537;SDS011;3302;52.508;13.454;2022-12-07T01:00:37;7.43;;;5.30;;
6537;SDS011;3302;52.508;13.454;2022-12-07T01:03:04;8.73;;;6.13;;
6537;SDS011;3302;52.508;13.454;2022-12-07T01:05:31;7.20;;;6.10;;
6537;SDS011;3302;52.508;13.454;2022-12-07T01:07:57;7.33;;;5.43;;
6537;SDS011;3302;52.508;13.454;2022-12-07T01:10:23;6.33;;;5.43;;
6537;SDS011;3302;52.508;13.454;2022-12-07T01:12:49;7.83;;;6.13;;
6537;SDS011;3302;52.508;13.454;2022-12-07T01:15:14;6.80;;;5.00;;
6537;SDS011;3302;52.508;13.454;2022-12-07T01:17:40;6.50;;;5.30;;
6537;SDS011;3302;52.508;13.454;2022-12-07T01:20:06;6.33;;;5.23;;
6537;SDS011;3302;52.508;13.454;2022-12-07T01:22:36;6.83;;;5.47;;
6537;SDS011;3302;52.508;13.454;2022-12-07T01:25:03;5.97;;;4.83;;
6537;SDS011;3302;52.508;13.454;2022-12-07T01:27:30;6.47;;;5.60;;
6537;SDS011;3302;52.508;13.454;2022-12-07T01:29:57;6.83;;;5.67;;
6537;SDS011;3302;52.508;13.454;2022-12-07T01:32:22;7.37;;;5.30;;
6537;SDS011;3302;52.508;13.454;2022-12-07T01:34:48;6.90;;;5.27;;
6537;SDS011;3302;52.508;13.454;2022-12-07T01:37:14;6.20;;;5.10;;
6537;SDS011;3302;52.508;13.454;2022-12-07T01:39:40;6.03;;;4.70;;
6537;SDS011;3302;52.508;13.454;2022-12-07T01:42:10;5.20;;;4.60;;
6537;SDS011;3302;52.508;13.454;2022-12-07T01:47:40;5.80;;;4.63;;
6537;SDS011;3302;52.508;13.454;2022-12-07T01:50:07;5.77;;;4.90;;
6537;SDS011;3302;52.508;13.454;2022-12-07T01:52:34;7.37;;;5.00;;
6537;SDS011;3302;52.508;13.454;2022-12-07T01:55:02;5.87;;;4.50;;
6537;SDS011;3302;52.508;13.454;2022-12-07T01:57:32;5.87;;;4.70;;
6537;SDS011;3302;52.508;13.454;2022-12-07T02:00:03;5.13;;;3.90;;
6537;SDS011;3302;52.508;13.454;2022-12-07T02:02:31;5.80;;;4.40;;
6537;SDS011;3302;52.508;13.454;2022-12-07T02:05:01;4.57;;;3.77;;
6537;SDS011;3302;52.508;13.454;2022-12-07T02:07:28;5.63;;;4.00;;
6537;SDS011;3302;52.508;13.454;2022-12-07T02:09:55;6.30;;;4.50;;
6537;SDS011;3302;52.508;13.454;2022-12-07T02:12:20;5.23;;;4.27;;
6537;SDS011;3302;52.508;13.454;2022-12-07T02:14:48;4.90;;;3.70;;
6537;SDS011;3302;52.508;13.454;2022-12-07T02:17:25;5.57;;;3.87;;
6537;SDS011;3302;52.508;13.454;2022-12-07T02:22:39;4.57;;;3.90;;
6537;SDS011;3302;52.508;13.454;2022-12-07T02:25:33;5.47;;;3.87;;
6537;SDS011;3302;52.508;13.454;2022-12-07T02:30:54;4.63;;;3.77;;
6537;SDS011;3302;52.508;13.454;2022-12-07T02:33:31;4.83;;;3.80;;
6537;SDS011;3302;52.508;13.454;2022-12-07T02:36:05;4.60;;;3.60;;
6537;SDS011;3302;52.508;13.454;2022-12-07T02:42:07;5.63;;;4.20;;
6537;SDS011;3302;52.508;13.454;2022-12-07T02:44:17;5.73;;;4.43;;
6537;SDS011;3302;52.508;13.454;2022-12-07T02:46:50;6.63;;;4.37;;
6537;SDS011;3302;52.508;13.454;2022-12-07T02:49:24;4.63;;;3.97;;
6537;SDS011;3302;52.508;13.454;2022-12-07T02:51:52;5.63;;;4.30;;
6537;SDS011;3302;52.508;13.454;2022-12-07T02:54:19;5.40;;;4.50;;
6537;SDS011;3302;52.508;13.454;2022-12-07T02:56:48;5.30;;;4.20;;
6537;SDS011;3302;52.508;13.454;2022-12-07T03:16:15;6.07;;;4.70;;
6537;SDS011;3302;52.508;13.454;2022-12-07T03:19:01;6.97;;;5.07;;
6537;SDS011;3302;52.508;13.454;2022-12-07T03:21:42;5.93;;;5.07;;
6537;SDS011;3302;52.508;13.454;2022-12-07T03:24:16;7.37;;;4.80;;
6537;SDS011;3302;52.508;13.454;2022-12-07T03:26:47;7.03;;;5.53;;
6537;SDS011;3302;52.508;13.454;2022-12-07T03:29:19;6.73;;;5.00;;
6537;SDS011;3302;52.508;13.454;2022-12-07T03:32:00;5.90;;;4.87;;
6537;SDS011;3302;52.508;13.454;2022-12-07T03:34:44;6.60;;;5.07;;
6537;SDS011;3302;52.508;13.454;2022-12-07T03:37:20;8.37;;;5.40;;
6537;SDS011;3302;52.508;13.454;2022-12-07T03:42:24;5.83;;;5.07;;
6537;SDS011;3302;52.508;13.454;2022-12-07T03:44:50;7.87;;;5.93;;
6537;SDS011;3302;52.508;13.454;2022-12-07T03:50:02;7.83;;;5.30;;
6537;SDS011;3302;52.508;13.454;2022-12-07T03:52:44;7.43;;;5.13;;
6537;SDS011;3302;52.508;13.454;2022-12-07T03:57:51;7.20;;;5.27;;
6537;SDS011;3302;52.508;13.454;2022-12-07T04:00:19;6.53;;;5.00;;
6537;SDS011;3302;52.508;13.454;2022-12-07T04:02:45;8.13;;;6.27;;
6537;SDS011;3302;52.508;13.454;2022-12-07T04:05:12;8.70;;;5.67;;
6537;SDS011;3302;52.508;13.454;2022-12-07T04:07:38;7.07;;;5.40;;
6537;SDS011;3302;52.508;13.454;2022-12-07T04:10:04;7.97;;;6.07;;
6537;SDS011;3302;52.508;13.454;2022-12-07T04:12:31;8.13;;;6.33;;
6537;SDS011;3302;52.508;13.454;2022-12-07T04:14:56;8.77;;;6.30;;
6537;SDS011;3302;52.508;13.454;2022-12-07T04:17:22;9.23;;;7.10;;
6537;SDS011;3302;52.508;13.454;2022-12-07T04:19:48;8.90;;;6.90;;
6537;SDS011;3302;52.508;13.454;2022-12-07T04:22:14;9.47;;;6.60;;
6537;SDS011;3302;52.508;13.454;2022-12-07T04:24:39;10.07;;;7.03;;
6537;SDS011;3302;52.508;13.454;2022-12-07T04:27:05;10.17;;;7.07;;
6537;SDS011;3302;52.508;13.454;2022-12-07T04:29:31;9.97;;;7.70;;
6537;SDS011;3302;52.508;13.454;2022-12-07T04:31:57;11.43;;;7.97;;
6537;SDS011;3302;52.508;13.454;2022-12-07T04:34:22;11.30;;;7.70;;
6537;SDS011;3302;52.508;13.454;2022-12-07T04:36:48;10.47;;;8.00;;
6537;SDS011;3302;52.508;13.454;2022-12-07T04:39:19;11.43;;;8.17;;
6537;SDS011;3302;52.508;13.454;2022-12-07T04:41:45;12.00;;;8.57;;
6537;SDS011;3302;52.508;13.454;2022-12-07T04:44:11;12.57;;;8.83;;
6537;SDS011;3302;52.508;13.454;2022-12-07T04:46:39;13.87;;;9.20;;
6537;SDS011;3302;52.508;13.454;2022-12-07T04:49:06;14.07;;;9.60;;
6537;SDS011;3302;52.508;13.454;2022-12-07T04:51:31;14.43;;;9.60;;
6537;SDS011;3302;52.508;13.454;2022-12-07T04:53:57;14.43;;;10.47;;
6537;SDS011;3302;52.508;13.454;2022-12-07T04:56:23;16.10;;;9.63;;
6537;SDS011;3302;52.508;13.454;2022-12-07T04:58:51;15.27;;;9.53;;
6537;SDS011;3302;52.508;13.454;2022-12-07T05:01:18;17.03;;;10.47;;
6537;SDS011;3302;52.508;13.454;2022-12-07T05:03:45;14.20;;;10.33;;
6537;SDS011;3302;52.508;13.454;2022-12-07T05:06:11;15.83;;;10.87;;
6537;SDS011;3302;52.508;13.454;2022-12-07T05:08:37;15.27;;;10.90;;
6537;SDS011;3302;52.508;13.454;2022-12-07T05:11:04;17.17;;;11.47;;
6537;SDS011;3302;52.508;13.454;2022-12-07T05:13:31;15.30;;;10.67;;
6537;SDS011;3302;52.508;13.454;2022-12-07T05:15:57;15.87;;;11.43;;
6537;SDS011;3302;52.508;13.454;2022-12-07T05:18:23;15.83;;;10.87;;
6537;SDS011;3302;52.508;13.454;2022-12-07T05:20:49;18.50;;;11.63;;
6537;SDS011;3302;52.508;13.454;2022-12-07T05:23:16;18.23;;;12.03;;
6537;SDS011;3302;52.508;13.454;2022-12-07T05:25:43;16.93;;;12.33;;
6537;SDS011;3302;52.508;13.454;2022-12-07T05:28:08;16.77;;;11.67;;
6537;SDS011;3302;52.508;13.454;2022-12-07T05:30:35;14.83;;;11.00;;
6537;SDS011;3302;52.508;13.454;2022-12-07T05:33:02;18.17;;;12.40;;
6537;SDS011;3302;52.508;13.454;2022-12-07T05:35:28;17.93;;;12.50;;
6537;SDS011;3302;52.508;13.454;2022-12-07T05:37:54;16.97;;;11.07;;
6537;SDS011;3302;52.508;13.454;2022-12-07T05:40:20;16.47;;;12.00;;
6537;SDS011;3302;52.508;13.454;2022-12-07T05:42:46;20.43;;;13.30;;
6537;SDS011;3302;52.508;13.454;2022-12-07T05:45:12;18.37;;;12.70;;
6537;SDS011;3302;52.508;13.454;2022-12-07T05:47:38;18.07;;;12.20;;
6537;SDS011;3302;52.508;13.454;2022-12-07T05:50:05;18.73;;;12.87;;
6537;SDS011;3302;52.508;13.454;2022-12-07T05:52:31;19.47;;;12.33;;
6537;SDS011;3302;52.508;13.454;2022-12-07T05:54:57;21.10;;;14.23;;
6537;SDS011;3302;52.508;13.454;2022-12-07T05:57:23;23.47;;;13.63;;
6537;SDS011;3302;52.508;13.454;2022-12-07T05:59:49;20.67;;;13.00;;
6537;SDS011;3302;52.508;13.454;2022-12-07T06:02:15;18.70;;;13.37;;
6537;SDS011;3302;52.508;13.454;2022-12-07T06:04:45;20.90;;;13.90;;
6537;SDS011;3302;52.508;13.454;2022-12-07T06:07:12;22.03;;;13.27;;
6537;SDS011;3302;52.508;13.454;2022-12-07T06:09:40;21.93;;;14.43;;
6537;SDS011;3302;52.508;13.454;2022-12-07T06:12:06;20.93;;;13.20;;
6537;SDS011;3302;52.508;13.454;2022-12-07T06:14:53;22.47;;;14.33;;
6537;SDS011;3302;52.508;13.454;2022-12-07T06:17:18;20.80;;;13.60;;
6537;SDS011;3302;52.508;13.454;2022-12-07T06:19:44;23.60;;;14.87;;
6537;SDS011;3302;52.508;13.454;2022-12-07T06:22:10;22.27;;;13.70;;
6537;SDS011;3302;52.508;13.454;2022-12-07T06:24:37;21.97;;;12.93;;
6537;SDS011;3302;52.508;13.454;2022-12-07T06:27:04;23.90;;;14.50;;
6537;SDS011;3302;52.508;13.454;2022-12-07T06:29:30;22.60;;;13.67;;
6537;SDS011;3302;52.508;13.454;2022-12-07T06:31:56;20.20;;;13.20;;
6537;SDS011;3302;52.508;13.454;2022-12-07T06:34:23;22.10;;;14.17;;
6537;SDS011;3302;52.508;13.454;2022-12-07T06:36:50;21.93;;;13.87;;
6537;SDS011;3302;52.508;13.454;2022-12-07T06:39:26;20.63;;;13.23;;
6537;SDS011;3302;52.508;13.454;2022-12-07T06:41:53;20.43;;;12.60;;
6537;SDS011;3302;52.508;13.454;2022-12-07T06:44:19;18.70;;;12.17;;
6537;SDS011;3302;52.508;13.454;2022-12-07T06:46:47;18.90;;;12.27;;
6537;SDS011;3302;52.508;13.454;2022-12-07T06:49:13;24.17;;;12.77;;
6537;SDS011;3302;52.508;13.454;2022-12-07T06:51:39;22.43;;;12.17;;
6537;SDS011;3302;52.508;13.454;2022-12-07T06:54:08;18.90;;;12.27;;
6537;SDS011;3302;52.508;13.454;2022-12-07T06:56:35;20.10;;;11.27;;
6537;SDS011;3302;52.508;13.454;2022-12-07T06:59:02;18.57;;;12.27;;
6537;SDS011;3302;52.508;13.454;2022-12-07T07:01:28;18.03;;;12.70;;
6537;SDS011;3302;52.508;13.454;2022-12-07T07:03:54;18.53;;;12.87;;
6537;SDS011;3302;52.508;13.454;2022-12-07T07:06:19;20.93;;;12.90;;
6537;SDS011;3302;52.508;13.454;2022-12-07T07:08:45;20.40;;;13.97;;
6537;SDS011;3302;52.508;13.454;2022-12-07T07:11:11;21.17;;;12.63;;
6537;SDS011;3302;52.508;13.454;2022-12-07T07:13:37;22.70;;;12.77;;
6537;SDS011;3302;52.508;13.454;2022-12-07T07:16:03;23.20;;;13.77;;
6537;SDS011;3302;52.508;13.454;2022-12-07T07:18:29;21.27;;;11.73;;
6537;SDS011;3302;52.508;13.454;2022-12-07T07:20:55;20.53;;;13.07;;
6537;SDS011;3302;52.508;13.454;2022-12-07T07:23:21;22.27;;;13.03;;
6537;SDS011;3302;52.508;13.454;2022-12-07T07:25:47;17.93;;;10.90;;
6537;SDS011;3302;52.508;13.454;2022-12-07T07:28:13;17.83;;;12.03;;
6537;SDS011;3302;52.508;13.454;2022-12-07T07:30:39;20.03;;;11.97;;
6537;SDS011;3302;52.508;13.454;2022-12-07T07:33:05;21.53;;;11.07;;
6537;SDS011;3302;52.508;13.454;2022-12-07T07:35:32;16.40;;;10.87;;
6537;SDS011;3302;52.508;13.454;2022-12-07T07:37:59;16.97;;;11.27;;
6537;SDS011;3302;52.508;13.454;2022-12-07T07:40:25;17.30;;;11.40;;
6537;SDS011;3302;52.508;13.454;2022-12-07T07:42:52;16.33;;;10.90;;
6537;SDS011;3302;52.508;13.454;2022-12-07T07:45:19;16.40;;;10.13;;
6537;SDS011;3302;52.508;13.454;2022-12-07T07:47:46;18.90;;;9.97;;
6537;SDS011;3302;52.508;13.454;2022-12-07T07:50:12;14.43;;;9.00;;
6537;SDS011;3302;52.508;13.454;2022-12-07T07:52:38;14.23;;;9.60;;
6537;SDS011;3302;52.508;13.454;2022-12-07T07:55:05;13.97;;;9.80;;
6537;SDS011;3302;52.508;13.454;2022-12-07T07:57:34;12.70;;;8.77;;
6537;SDS011;3302;52.508;13.454;2022-12-07T08:00:00;12.33;;;9.07;;
6537;SDS011;3302;52.508;13.454;2022-12-07T08:02:26;15.30;;;8.70;;
6537;SDS011;3302;52.508;13.454;2022-12-07T08:04:54;12.07;;;7.93;;
6537;SDS011;3302;52.508;13.454;2022-12-07T08:07:20;12.13;;;7.07;;
6537;SDS011;3302;52.508;13.454;2022-12-07T08:09:46;10.80;;;7.70;;
6537;SDS011;3302;52.508;13.454;2022-12-07T08:12:12;11.87;;;7.17;;
6537;SDS011;3302;52.508;13.454;2022-12-07T08:14:38;12.10;;;7.50;;
6537;SDS011;3302;52.508;13.454;2022-12-07T08:17:03;10.47;;;6.67;;
6537;SDS011;3302;52.508;13.454;2022-12-07T08:19:29;11.73;;;6.40;;
6537;SDS011;3302;52.508;13.454;2022-12-07T08:21:55;8.90;;;6.03;;
6537;SDS011;3302;52.508;13.454;2022-12-07T08:24:21;9.77;;;6.60;;
6537;SDS011;3302;52.508;13.454;2022-12-07T08:26:47;7.07;;;4.73;;
6537;SDS011;3302;52.508;13.454;2022-12-07T08:29:15;7.23;;;5.10;;
6537;SDS011;3302;52.508;13.454;2022-12-07T08:31:40;9.50;;;6.73;;
6537;SDS011;3302;52.508;13.454;2022-12-07T08:34:06;8.97;;;5.60;;
6537;SDS011;3302;52.508;13.454;2022-12-07T08:36:32;8.10;;;5.40;;
6537;SDS011;3302;52.508;13.454;2022-12-07T08:38:58;6.80;;;4.90;;
6537;SDS011;3302;52.508;13.454;2022-12-07T08:41:24;9.87;;;5.67;;
6537;SDS011;3302;52.508;13.454;2022-12-07T08:43:51;9.10;;;4.53;;
6537;SDS011;3302;52.508;13.454;2022-12-07T08:46:21;8.03;;;5.10;;
6537;SDS011;3302;52.508;13.454;2022-12-07T08:48:53;5.80;;;3.47;;
6537;SDS011;3302;52.508;13.454;2022-12-07T08:51:24;5.17;;;4.00;;
6537;SDS011;3302;52.508;13.454;2022-12-07T08:53:50;6.30;;;3.90;;
6537;SDS011;3302;52.508;13.454;2022-12-07T08:56:17;2.87;;;2.13;;
6537;SDS011;3302;52.508;13.454;2022-12-07T08:58:44;4.87;;;2.43;;
6537;SDS011;3302;52.508;13.454;2022-12-07T09:01:10;4.03;;;2.50;;
6537;SDS011;3302;52.508;13.454;2022-12-07T09:03:36;3.07;;;2.43;;
6537;SDS011;3302;52.508;13.454;2022-12-07T09:06:01;3.77;;;2.47;;
6537;SDS011;3302;52.508;13.454;2022-12-07T09:08:29;2.90;;;2.00;;
6537;SDS011;3302;52.508;13.454;2022-12-07T09:11:00;2.87;;;2.10;;
6537;SDS011;3302;52.508;13.454;2022-12-07T09:13:26;2.87;;;2.33;;
6537;SDS011;3302;52.508;13.454;2022-12-07T09:15:51;2.47;;;2.07;;
6537;SDS011;3302;52.508;13.454;2022-12-07T09:18:17;3.37;;;2.10;;
6537;SDS011;3302;52.508;13.454;2022-12-07T09:20:43;2.43;;;1.80;;
6537;SDS011;3302;52.508;13.454;2022-12-07T09:23:09;2.70;;;2.07;;
6537;SDS011;3302;52.508;13.454;2022-12-07T09:25:35;3.63;;;2.10;;
6537;SDS011;3302;52.508;13.454;2022-12-07T09:28:01;3.27;;;1.90;;
6537;SDS011;3302;52.508;13.454;2022-12-07T09:30:27;2.17;;;1.77;;
6537;SDS011;3302;52.508;13.454;2022-12-07T09:32:53;2.30;;;1.70;;
6537;SDS011;3302;52.508;13.454;2022-12-07T09:35:20;2.33;;;1.90;;
6537;SDS011;3302;52.508;13.454;2022-12-07T09:37:46;2.20;;;1.80;;
6537;SDS011;3302;52.508;13.454;2022-12-07T09:40:12;2.63;;;2.10;;
6537;SDS011;3302;52.508;13.454;2022-12-07T09:42:41;3.40;;;2.10;;
6537;SDS011;3302;52.508;13.454;2022-12-07T09:45:20;3.07;;;1.77;;
6537;SDS011;3302;52.508;13.454;2022-12-07T09:47:46;2.63;;;2.17;;
6537;SDS011;3302;52.508;13.454;2022-12-07T09:50:13;3.13;;;2.23;;
6537;SDS011;3302;52.508;13.454;2022-12-07T09:52:44;2.40;;;1.90;;
6537;SDS011;3302;52.508;13.454;2022-12-07T09:55:14;2.13;;;1.80;;
6537;SDS011;3302;52.508;13.454;2022-12-07T09:57:41;5.30;;;2.40;;
6537;SDS011;3302;52.508;13.454;2022-12-07T10:00:14;2.40;;;1.87;;
6537;SDS011;3302;52.508;13.454;2022-12-07T10:02:42;2.53;;;1.87;;
6537;SDS011;3302;52.508;13.454;2022-12-07T10:05:35;1.77;;;1.40;;
6537;SDS011;3302;52.508;13.454;2022-12-07T10:08:07;2.30;;;1.80;;
6537;SDS011;3302;52.508;13.454;2022-12-07T10:10:36;1.87;;;1.70;;
6537;SDS011;3302;52.508;13.454;2022-12-07T10:13:15;2.30;;;1.70;;
6537;SDS011;3302;52.508;13.454;2022-12-07T10:18:27;2.00;;;1.77;;
6537;SDS011;3302;52.508;13.454;2022-12-07T10:23:38;2.43;;;1.80;;
6537;SDS011;3302;52.508;13.454;2022-12-07T10:29:04;2.83;;;1.80;;
6537;SDS011;3302;52.508;13.454;2022-12-07T10:31:57;2.10;;;1.90;;
6537;SDS011;3302;52.508;13.454;2022-12-07T10:39:43;3.33;;;1.77;;
6537;SDS011;3302;52.508;13.454;2022-12-07T10:42:31;3.53;;;1.80;;
6537;SDS011;3302;52.508;13.454;2022-12-07T10:45:14;2.60;;;1.93;;
6537;SDS011;3302;52.508;13.454;2022-12-07T10:50:22;2.87;;;1.97;;
6537;SDS011;3302;52.508;13.454;2022-12-07T11:01:32;3.30;;;2.23;;
6537;SDS011;3302;52.508;13.454;2022-12-07T11:04:33;2.70;;;2.30;;
6537;SDS011;3302;52.508;13.454;2022-12-07T11:07:28;4.23;;;2.00;;
6537;SDS011;3302;52.508;13.454;2022-12-07T11:10:13;4.00;;;2.20;;
6537;SDS011;3302;52.508;13.454;2022-12-07T11:19:06;3.17;;;2.77;;
6537;SDS011;3302;52.508;13.454;2022-12-07T11:21:57;4.73;;;2.90;;
6537;SDS011;3302;52.508;13.454;2022-12-07T11:37:51;4.63;;;2.67;;
6537;SDS011;3302;52.508;13.454;2022-12-07T11:40:26;2.97;;;2.67;;
6537;SDS011;3302;52.508;13.454;2022-12-07T11:43:03;4.63;;;2.80;;
6537;SDS011;3302;52.508;13.454;2022-12-07T11:45:34;5.63;;;3.00;;
6537;SDS011;3302;52.508;13.454;2022-12-07T11:48:06;3.57;;;2.70;;
6537;SDS011;3302;52.508;13.454;2022-12-07T11:50:40;5.23;;;3.33;;
6537;SDS011;3302;52.508;13.454;2022-12-07T12:06:38;4.53;;;2.70;;
6537;SDS011;3302;52.508;13.454;2022-12-07T12:19:32;4.33;;;2.70;;
6537;SDS011;3302;52.508;13.454;2022-12-07T12:24:39;5.73;;;2.60;;
6537;SDS011;3302;52.508;13.454;2022-12-07T12:27:07;4.67;;;2.70;;
6537;SDS011;3302;52.508;13.454;2022-12-07T12:29:41;4.67;;;2.83;;
6537;SDS011;3302;52.508;13.454;2022-12-07T12:32:21;4.77;;;3.03;;
6537;SDS011;3302;52.508;13.454;2022-12-07T12:35:03;3.30;;;2.30;;
6537;SDS011;3302;52.508;13.454;2022-12-07T12:38:21;3.63;;;1.93;;
6537;SDS011;3302;52.508;13.454;2022-12-07T12:40:53;4.40;;;2.10;;
6537;SDS011;3302;52.508;13.454;2022-12-07T12:48:56;6.07;;;2.77;;
6537;SDS011;3302;52.508;13.454;2022-12-07T12:51:46;4.37;;;2.10;;
6537;SDS011;3302;52.508;13.454;2022-12-07T12:54:14;5.57;;;1.83;;
6537;SDS011;3302;52.508;13.454;2022-12-07T12:59:26;5.67;;;2.27;;
6537;SDS011;3302;52.508;13.454;2022-12-07T13:04:28;4.40;;;2.03;;
6537;SDS011;3302;52.508;13.454;2022-12-07T13:07:01;5.13;;;2.93;;
6537;SDS011;3302;52.508;13.454;2022-12-07T13:09:28;5.53;;;2.30;;
6537;SDS011;3302;52.508;13.454;2022-12-07T13:12:11;5.17;;;2.30;;
6537;SDS011;3302;52.508;13.454;2022-12-07T13:17:08;5.37;;;2.43;;
6537;SDS011;3302;52.508;13.454;2022-12-07T13:19:58;5.40;;;2.13;;
6537;SDS011;3302;52.508;13.454;2022-12-07T13:27:42;4.17;;;2.20;;
6537;SDS011;3302;52.508;13.454;2022-12-07T13:30:16;5.30;;;2.77;;
6537;SDS011;3302;52.508;13.454;2022-12-07T13:32:50;11.23;;;2.80;;
6537;SDS011;3302;52.508;13.454;2022-12-07T13:35:26;10.23;;;3.00;;
6537;SDS011;3302;52.508;13.454;2022-12-07T13:37:52;4.23;;;1.93;;
6537;SDS011;3302;52.508;13.454;2022-12-07T13:40:19;4.00;;;2.27;;
6537;SDS011;3302;52.508;13.454;2022-12-07T13:42:46;2.30;;;1.60;;
6537;SDS011;3302;52.508;13.454;2022-12-07T13:45:22;5.87;;;2.20;;
6537;SDS011;3302;52.508;13.454;2022-12-07T13:48:12;4.97;;;2.50;;
6537;SDS011;3302;52.508;13.454;2022-12-07T13:50:53;5.23;;;1.97;;
6537;SDS011;3302;52.508;13.454;2022-12-07T13:53:21;3.90;;;1.80;;
6537;SDS011;3302;52.508;13.454;2022-12-07T13:55:47;8.50;;;2.37;;
6537;SDS011;3302;52.508;13.454;2022-12-07T13:58:13;3.17;;;1.70;;
6537;SDS011;3302;52.508;13.454;2022-12-07T14:00:39;2.93;;;1.87;;
6537;SDS011;3302;52.508;13.454;2022-12-07T14:05:38;3.37;;;2.00;;
6537;SDS011;3302;52.508;13.454;2022-12-07T14:08:21;6.33;;;2.10;;
6537;SDS011;3302;52.508;13.454;2022-12-07T14:13:33;4.77;;;2.30;;
6537;SDS011;3302;52.508;13.454;2022-12-07T14:16:00;5.57;;;2.50;;
6537;SDS011;3302;52.508;13.454;2022-12-07T14:18:45;5.03;;;2.90;;
6537;SDS011;3302;52.508;13.454;2022-12-07T14:23:41;5.07;;;2.70;;
6537;SDS011;3302;52.508;13.454;2022-12-07T14:26:11;4.53;;;2.43;;
6537;SDS011;3302;52.508;13.454;2022-12-07T14:28:43;4.77;;;2.10;;
6537;SDS011;3302;52.508;13.454;2022-12-07T14:31:13;3.97;;;2.57;;
6537;SDS011;3302;52.508;13.454;2022-12-07T14:33:41;3.27;;;1.70;;
6537;SDS011;3302;52.508;13.454;2022-12-07T14:36:11;3.27;;;1.90;;
6537;SDS011;3302;52.508;13.454;2022-12-07T14:38:38;4.57;;;2.00;;
6537;SDS011;3302;52.508;13.454;2022-12-07T14:41:15;6.07;;;1.90;;
6537;SDS011;3302;52.508;13.454;2022-12-07T14:44:09;6.20;;;2.37;;
6537;SDS011;3302;52.508;13.454;2022-12-07T14:46:37;7.87;;;2.20;;
6537;SDS011;3302;52.508;13.454;2022-12-07T14:49:03;7.77;;;2.73;;
6537;SDS011;3302;52.508;13.454;2022-12-07T14:51:28;2.93;;;2.00;;
6537;SDS011;3302;52.508;13.454;2022-12-07T14:53:54;4.63;;;2.13;;
6537;SDS011;3302;52.508;13.454;2022-12-07T14:56:20;4.50;;;2.17;;
6537;SDS011;3302;52.508;13.454;2022-12-07T14:58:46;5.57;;;2.47;;
6537;SDS011;3302;52.508;13.454;2022-12-07T15:01:13;7.27;;;2.30;;
6537;SDS011;3302;52.508;13.454;2022-12-07T15:03:39;4.60;;;2.10;;
6537;SDS011;3302;52.508;13.454;2022-12-07T15:06:05;4.23;;;2.20;;
6537;SDS011;3302;52.508;13.454;2022-12-07T15:08:32;6.87;;;2.10;;
6537;SDS011;3302;52.508;13.454;2022-12-07T15:10:58;7.37;;;2.40;;
6537;SDS011;3302;52.508;13.454;2022-12-07T15:13:23;3.63;;;2.00;;
6537;SDS011;3302;52.508;13.454;2022-12-07T15:16:13;4.23;;;2.10;;
6537;SDS011;3302;52.508;13.454;2022-12-07T15:18:41;3.13;;;1.90;;
6537;SDS011;3302;52.508;13.454;2022-12-07T15:21:11;4.83;;;1.53;;
6537;SDS011;3302;52.508;13.454;2022-12-07T15:23:39;4.83;;;1.80;;
6537;SDS011;3302;52.508;13.454;2022-12-07T15:26:04;4.97;;;1.87;;
6537;SDS011;3302;52.508;13.454;2022-12-07T15:28:30;5.53;;;1.90;;
6537;SDS011;3302;52.508;13.454;2022-12-07T15:30:56;5.63;;;2.27;;
6537;SDS011;3302;52.508;13.454;2022-12-07T15:33:22;4.50;;;2.10;;
6537;SDS011;3302;52.508;13.454;2022-12-07T15:35:47;4.27;;;2.00;;
6537;SDS011;3302;52.508;13.454;2022-12-07T15:38:13;5.03;;;1.80;;
6537;SDS011;3302;52.508;13.454;2022-12-07T15:40:39;6.37;;;2.13;;
6537;SDS011;3302;52.508;13.454;2022-12-07T15:43:05;4.83;;;2.00;;
6537;SDS011;3302;52.508;13.454;2022-12-07T15:45:53;4.43;;;1.87;;
6537;SDS011;3302;52.508;13.454;2022-12-07T15:48:19;3.70;;;2.10;;
6537;SDS011;3302;52.508;13.454;2022-12-07T15:50:44;5.60;;;2.10;;
6537;SDS011;3302;52.508;13.454;2022-12-07T15:53:10;7.93;;;2.30;;
6537;SDS011;3302;52.508;13.454;2022-12-07T15:55:38;5.77;;;2.27;;
6537;SDS011;3302;52.508;13.454;2022-12-07T15:58:05;5.33;;;2.47;;
6537;SDS011;3302;52.508;13.454;2022-12-07T16:00:31;3.87;;;2.20;;
6537;SDS011;3302;52.508;13.454;2022-12-07T16:02:57;4.13;;;1.90;;
6537;SDS011;3302;52.508;13.454;2022-12-07T16:05:23;5.13;;;2.20;;
6537;SDS011;3302;52.508;13.454;2022-12-07T16:07:49;6.67;;;2.20;;
6537;SDS011;3302;52.508;13.454;2022-12-07T16:10:16;5.57;;;2.00;;
6537;SDS011;3302;52.508;13.454;2022-12-07T16:12:42;4.97;;;2.00;;
6537;SDS011;3302;52.508;13.454;2022-12-07T16:15:07;7.37;;;2.77;;
6537;SDS011;3302;52.508;13.454;2022-12-07T16:17:34;5.37;;;2.10;;
6537;SDS011;3302;52.508;13.454;2022-12-07T16:19:59;7.13;;;2.20;;
6537;SDS011;3302;52.508;13.454;2022-12-07T16:22:25;5.33;;;2.50;;
6537;SDS011;3302;52.508;13.454;2022-12-07T16:24:51;6.03;;;2.40;;
6537;SDS011;3302;52.508;13.454;2022-12-07T16:27:17;5.27;;;1.87;;
6537;SDS011;3302;52.508;13.454;2022-12-07T16:29:43;6.00;;;2.30;;
6537;SDS011;3302;52.508;13.454;2022-12-07T16:32:09;5.73;;;2.23;;
6537;SDS011;3302;52.508;13.454;2022-12-07T16:34:34;6.43;;;2.70;;
6537;SDS011;3302;52.508;13.454;2022-12-07T16:37:00;4.53;;;2.30;;
6537;SDS011;3302;52.508;13.454;2022-12-07T16:39:26;5.93;;;2.90;;
6537;SDS011;3302;52.508;13.454;2022-12-07T16:41:52;6.10;;;2.33;;
6537;SDS011;3302;52.508;13.454;2022-12-07T16:44:18;3.33;;;2.07;;
6537;SDS011;3302;52.508;13.454;2022-12-07T16:46:44;4.47;;;2.27;;
6537;SDS011;3302;52.508;13.454;2022-12-07T16:49:13;5.13;;;2.10;;
6537;SDS011;3302;52.508;13.454;2022-12-07T16:51:39;6.27;;;2.27;;
6537;SDS011;3302;52.508;13.454;2022-12-07T16:54:06;4.80;;;2.00;;
6537;SDS011;3302;52.508;13.454;2022-12-07T16:56:33;2.63;;;1.90;;
6537;SDS011;3302;52.508;13.454;2022-12-07T16:58:59;5.67;;;2.20;;
6537;SDS011;3302;52.508;13.454;2022-12-07T17:01:25;5.30;;;2.23;;
6537;SDS011;3302;52.508;13.454;2022-12-07T17:03:53;4.73;;;2.20;;
6537;SDS011;3302;52.508;13.454;2022-12-07T17:06:22;5.90;;;2.03;;
6537;SDS011;3302;52.508;13.454;2022-12-07T17:08:51;4.73;;;2.27;;
6537;SDS011;3302;52.508;13.454;2022-12-07T17:11:19;5.07;;;2.17;;
6537;SDS011;3302;52.508;13.454;2022-12-07T17:13:46;4.57;;;2.20;;
6537;SDS011;3302;52.508;13.454;2022-12-07T17:16:31;6.10;;;2.67;;
6537;SDS011;3302;52.508;13.454;2022-12-07T17:18:57;4.10;;;2.40;;
6537;SDS011;3302;52.508;13.454;2022-12-07T17:21:23;5.47;;;2.10;;